sensor_id;sensor_type;location;lat;lon;timestamp;pressure;altitude;pressure_sealevel;temperature;humidity
29239;BME280;16267;48.194;11.546;2023-01-25T00:00:21;97416.28;;;1.99;99.67
29239;BME280;16267;48.194;11.546;2023-01-25T00:02:47;97410.69;;;2.00;99.46
29239;BME280;16267;48.194;11.546;2023-01-25T00:05:12;97406.78;;;1.98;98.70
29239;BME280;16267;48.194;11.546;2023-01-25T00:07:38;97412.56;;;2.00;98.83
29239;BME280;16267;48.194;11.546;2023-01-25T00:10:05;97412.56;;;2.00;98.62
29239;BME280;16267;48.194;11.546;2023-01-25T00:12:30;97408.03;;;2.00;98.42
29239;BME280;16267;48.194;11.546;2023-01-25T00:14:56;97414.88;;;2.01;98.60
29239;BME280;16267;48.194;11.546;2023-01-25T00:17:22;97411.75;;;1.99;98.54
29239;BME280;16267;48.194;11.546;2023-01-25T00:19:48;97414.59;;;1.94;97.77
29239;BME280;16267;48.194;11.546;2023-01-25T00:22:13;97412.38;;;1.96;98.17
29239;BME280;16267;48.194;11.546;2023-01-25T00:24:39;97408.47;;;1.94;97.97
29239;BME280;16267;48.194;11.546;2023-01-25T00:27:05;97408.03;;;1.92;97.89
29239;BME280;16267;48.194;11.546;2023-01-25T00:29:31;97407.84;;;1.88;97.59
29239;BME280;16267;48.194;11.546;2023-01-25T00:39:31;97409.72;;;1.88;98.41
29239;BME280;16267;48.194;11.546;2023-01-25T00:41:56;97408.94;;;1.87;99.02
29239;BME280;16267;48.194;11.546;2023-01-25T00:44:22;97400.72;;;1.89;99.03
29239;BME280;16267;48.194;11.546;2023-01-25T00:46:48;97402.56;;;1.88;98.58
29239;BME280;16267;48.194;11.546;2023-01-25T00:51:47;97402.56;;;1.88;98.88
29239;BME280;16267;48.194;11.546;2023-01-25T00:54:12;97396.47;;;1.88;99.02
29239;BME280;16267;48.194;11.546;2023-01-25T00:56:38;97405.03;;;1.85;98.29
29239;BME280;16267;48.194;11.546;2023-01-25T00:59:04;97403.78;;;1.82;98.98
29239;BME280;16267;48.194;11.546;2023-01-25T01:01:30;97396.63;;;1.83;98.94
29239;BME280;16267;48.194;11.546;2023-01-25T01:03:56;97403.16;;;1.85;99.00
29239;BME280;16267;48.194;11.546;2023-01-25T01:06:22;97403.16;;;1.85;99.58
29239;BME280;16267;48.194;11.546;2023-01-25T01:08:47;97402.56;;;1.88;99.58
29239;BME280;16267;48.194;11.546;2023-01-25T01:11:13;97402.25;;;1.90;99.90
29239;BME280;16267;48.194;11.546;2023-01-25T01:13:39;97402.56;;;1.88;98.16
29239;BME280;16267;48.194;11.546;2023-01-25T01:16:08;97402.72;;;1.83;98.67
29239;BME280;16267;48.194;11.546;2023-01-25T01:18:43;97402.72;;;1.83;98.39
29239;BME280;16267;48.194;11.546;2023-01-25T01:21:10;97399.75;;;1.85;99.77
29239;BME280;16267;48.194;11.546;2023-01-25T01:23:37;97400.22;;;1.87;99.38
29239;BME280;16267;48.194;11.546;2023-01-25T01:26:06;97392.75;;;1.89;99.89
29239;BME280;16267;48.194;11.546;2023-01-25T01:28:34;97390.56;;;1.91;99.65
29239;BME280;16267;48.194;11.546;2023-01-25T01:31:09;97393.22;;;1.91;98.36
29239;BME280;16267;48.194;11.546;2023-01-25T01:33:35;97374.22;;;1.89;97.96
29239;BME280;16267;48.194;11.546;2023-01-25T01:36:29;97379.19;;;1.90;98.95
29239;BME280;16267;48.194;11.546;2023-01-25T01:38:56;97385.13;;;1.87;98.00
29239;BME280;16267;48.194;11.546;2023-01-25T01:41:22;97385.41;;;1.86;98.23
29239;BME280;16267;48.194;11.546;2023-01-25T01:43:49;97387.28;;;1.85;98.56
29239;BME280;16267;48.194;11.546;2023-01-25T01:48:59;97382.47;;;1.87;99.05
29239;BME280;16267;48.194;11.546;2023-01-25T01:57:12;97386.50;;;1.85;99.00
29239;BME280;16267;48.194;11.546;2023-01-25T01:59:53;97387.13;;;1.82;98.06
29239;BME280;16267;48.194;11.546;2023-01-25T02:02:23;97391.03;;;1.84;99.16
29239;BME280;16267;48.194;11.546;2023-01-25T02:04:50;97388.69;;;1.83;98.23
29239;BME280;16267;48.194;11.546;2023-01-25T02:07:28;97388.06;;;1.86;98.96
29239;BME280;16267;48.194;11.546;2023-01-25T02:09:55;97383.72;;;1.81;97.59
29239;BME280;16267;48.194;11.546;2023-01-25T02:12:22;97382.63;;;1.82;98.80
29239;BME280;16267;48.194;11.546;2023-01-25T02:14:51;97375.78;;;1.81;98.75
29239;BME280;16267;48.194;11.546;2023-01-25T02:17:27;97379.03;;;1.78;98.61
29239;BME280;16267;48.194;11.546;2023-01-25T02:23:26;97378.25;;;1.77;99.31
29239;BME280;16267;48.194;11.546;2023-01-25T02:25:56;97374.19;;;1.80;99.24
29239;BME280;16267;48.194;11.546;2023-01-25T02:31:02;97381.69;;;1.78;99.66
29239;BME280;16267;48.194;11.546;2023-01-25T02:33:28;97373.41;;;1.79;99.47
29239;BME280;16267;48.194;11.546;2023-01-25T02:39:00;97375.78;;;1.81;100.00
29239;BME280;16267;48.194;11.546;2023-01-25T02:41:51;97381.69;;;1.78;99.23
29239;BME280;16267;48.194;11.546;2023-01-25T02:44:30;97374.50;;;1.78;99.02
29239;BME280;16267;48.194;11.546;2023-01-25T02:46:57;97370.47;;;1.81;99.65
29239;BME280;16267;48.194;11.546;2023-01-25T02:49:23;97374.19;;;1.80;99.14
29239;BME280;16267;48.194;11.546;2023-01-25T02:51:52;97365.94;;;1.82;99.09
29239;BME280;16267;48.194;11.546;2023-01-25T02:54:23;97361.13;;;1.84;99.50
29239;BME280;16267;48.194;11.546;2023-01-25T02:56:51;97360.66;;;1.82;98.61
29239;BME280;16267;48.194;11.546;2023-01-25T02:59:17;97359.88;;;1.81;98.17
29239;BME280;16267;48.194;11.546;2023-01-25T03:01:44;97372.03;;;1.82;98.93
29239;BME280;16267;48.194;11.546;2023-01-25T03:04:10;97370.63;;;1.85;99.10
29239;BME280;16267;48.194;11.546;2023-01-25T03:06:38;97370.94;;;1.83;98.78
29239;BME280;16267;48.194;11.546;2023-01-25T03:09:06;97362.22;;;1.83;98.44
29239;BME280;16267;48.194;11.546;2023-01-25T03:11:33;97359.25;;;1.84;98.82
29239;BME280;16267;48.194;11.546;2023-01-25T03:14:00;97356.28;;;1.86;98.65
29239;BME280;16267;48.194;11.546;2023-01-25T03:16:26;97349.44;;;1.85;98.20
29239;BME280;16267;48.194;11.546;2023-01-25T03:18:53;97348.66;;;1.84;98.14
29239;BME280;16267;48.194;11.546;2023-01-25T03:21:21;97343.38;;;1.84;98.71
29239;BME280;16267;48.194;11.546;2023-01-25T03:23:54;97349.94;;;1.87;99.14
29239;BME280;16267;48.194;11.546;2023-01-25T03:26:21;97354.91;;;1.88;98.65
29239;BME280;16267;48.194;11.546;2023-01-25T03:28:48;97342.75;;;1.87;98.44
29239;BME280;16267;48.194;11.546;2023-01-25T03:31:15;97349.16;;;1.86;98.14
29239;BME280;16267;48.194;11.546;2023-01-25T03:33:42;97354.91;;;1.88;98.17
29239;BME280;16267;48.194;11.546;2023-01-25T03:36:08;97352.88;;;1.85;97.85
29239;BME280;16267;48.194;11.546;2023-01-25T03:38:34;97346.50;;;1.86;98.56
29239;BME280;16267;48.194;11.546;2023-01-25T03:41:01;97340.41;;;1.86;98.01
29239;BME280;16267;48.194;11.546;2023-01-25T03:43:27;97350.22;;;1.85;97.98
29239;BME280;16267;48.194;11.546;2023-01-25T03:45:58;97345.25;;;1.84;97.88
29239;BME280;16267;48.194;11.546;2023-01-25T03:48:25;97341.50;;;1.85;98.53
29239;BME280;16267;48.194;11.546;2023-01-25T03:50:55;97328.28;;;1.85;98.66
29239;BME280;16267;48.194;11.546;2023-01-25T03:53:24;97340.56;;;1.81;97.92
29239;BME280;16267;48.194;11.546;2023-01-25T03:56:07;97336.84;;;1.82;98.25
29239;BME280;16267;48.194;11.546;2023-01-25T03:58:36;97340.25;;;1.82;98.72
29239;BME280;16267;48.194;11.546;2023-01-25T04:01:05;97333.88;;;1.83;98.84
29239;BME280;16267;48.194;11.546;2023-01-25T04:03:32;97340.25;;;1.82;97.73
29239;BME280;16267;48.194;11.546;2023-01-25T04:05:58;97339.97;;;1.84;98.43
29239;BME280;16267;48.194;11.546;2023-01-25T04:08:25;97341.34;;;1.81;98.21
29239;BME280;16267;48.194;11.546;2023-01-25T04:10:54;97334.47;;;1.80;97.95
29239;BME280;16267;48.194;11.546;2023-01-25T04:13:21;97335.28;;;1.81;98.10
29239;BME280;16267;48.194;11.546;2023-01-25T04:15:48;97331.19;;;1.74;97.58
29239;BME280;16267;48.194;11.546;2023-01-25T04:18:14;97327.78;;;1.74;98.29
29239;BME280;16267;48.194;11.546;2023-01-25T04:20:41;97329.34;;;1.75;98.70
29239;BME280;16267;48.194;11.546;2023-01-25T04:23:07;97329.81;;;1.77;99.56
29239;BME280;16267;48.194;11.546;2023-01-25T04:25:34;97322.50;;;1.74;98.14
29239;BME280;16267;48.194;11.546;2023-01-25T04:28:00;97322.81;;;1.72;98.50
29239;BME280;16267;48.194;11.546;2023-01-25T04:30:26;97329.34;;;1.75;99.26
29239;BME280;16267;48.194;11.546;2023-01-25T04:32:52;97331.69;;;1.76;99.60
29239;BME280;16267;48.194;11.546;2023-01-25T04:35:18;97330.13;;;1.75;98.54
29239;BME280;16267;48.194;11.546;2023-01-25T04:37:55;97326.38;;;1.76;98.88
29239;BME280;16267;48.194;11.546;2023-01-25T04:40:21;97316.91;;;1.75;98.53
29239;BME280;16267;48.194;11.546;2023-01-25T04:42:47;97319.22;;;1.77;98.60
29239;BME280;16267;48.194;11.546;2023-01-25T04:45:13;97314.72;;;1.77;98.83
29239;BME280;16267;48.194;11.546;2023-01-25T04:47:39;97310.22;;;1.78;98.55
29239;BME280;16267;48.194;11.546;2023-01-25T04:50:05;97300.69;;;1.77;97.46
29239;BME280;16267;48.194;11.546;2023-01-25T04:52:31;97310.81;;;1.75;97.59
29239;BME280;16267;48.194;11.546;2023-01-25T04:54:57;97303.19;;;1.73;97.65
29239;BME280;16267;48.194;11.546;2023-01-25T04:57:23;97297.59;;;1.75;98.07
29239;BME280;16267;48.194;11.546;2023-01-25T04:59:48;97301.78;;;1.76;98.45
29239;BME280;16267;48.194;11.546;2023-01-25T05:02:14;97298.22;;;1.72;98.34
29239;BME280;16267;48.194;11.546;2023-01-25T05:04:40;97299.75;;;1.73;97.73
29239;BME280;16267;48.194;11.546;2023-01-25T05:07:06;97297.13;;;1.73;98.38
29239;BME280;16267;48.194;11.546;2023-01-25T05:09:32;97299.00;;;1.72;98.39
29239;BME280;16267;48.194;11.546;2023-01-25T05:11:57;97296.34;;;1.72;97.72
29239;BME280;16267;48.194;11.546;2023-01-25T05:14:23;97292.75;;;1.68;96.38
29239;BME280;16267;48.194;11.546;2023-01-25T05:16:49;97293.50;;;1.69;97.01
29239;BME280;16267;48.194;11.546;2023-01-25T05:19:15;97292.75;;;1.68;96.71
29239;BME280;16267;48.194;11.546;2023-01-25T05:21:41;97284.81;;;1.68;97.05
29239;BME280;16267;48.194;11.546;2023-01-25T05:24:29;97285.13;;;1.67;96.87
29239;BME280;16267;48.194;11.546;2023-01-25T05:26:56;97279.03;;;1.66;96.75
29239;BME280;16267;48.194;11.546;2023-01-25T05:29:31;97279.84;;;1.67;97.09
29239;BME280;16267;48.194;11.546;2023-01-25T05:32:10;97284.81;;;1.68;97.85
29239;BME280;16267;48.194;11.546;2023-01-25T05:34:37;97282.47;;;1.67;96.89
29239;BME280;16267;48.194;11.546;2023-01-25T05:37:06;97290.72;;;1.65;96.55
29239;BME280;16267;48.194;11.546;2023-01-25T05:39:32;97294.00;;;1.62;96.28
29239;BME280;16267;48.194;11.546;2023-01-25T05:41:57;97287.44;;;1.60;95.96
29239;BME280;16267;48.194;11.546;2023-01-25T05:44:23;97294.47;;;1.55;96.40
29239;BME280;16267;48.194;11.546;2023-01-25T05:46:49;97287.59;;;1.54;96.78
29239;BME280;16267;48.194;11.546;2023-01-25T05:49:16;97296.00;;;1.56;97.55
29239;BME280;16267;48.194;11.546;2023-01-25T05:51:42;97287.28;;;1.56;97.79
29239;BME280;16267;48.194;11.546;2023-01-25T05:54:13;97287.59;;;1.54;96.91
29239;BME280;16267;48.194;11.546;2023-01-25T05:56:39;97287.28;;;1.56;97.58
29239;BME280;16267;48.194;11.546;2023-01-25T05:59:05;97279.66;;;1.54;96.35
29239;BME280;16267;48.194;11.546;2023-01-25T06:01:31;97279.66;;;1.54;97.13
29239;BME280;16267;48.194;11.546;2023-01-25T06:03:57;97286.19;;;1.57;97.24
29239;BME280;16267;48.194;11.546;2023-01-25T06:06:31;97280.59;;;1.59;97.54
29239;BME280;16267;48.194;11.546;2023-01-25T06:08:56;97281.84;;;1.61;97.18
29239;BME280;16267;48.194;11.546;2023-01-25T06:11:23;97273.91;;;1.61;97.04
29239;BME280;16267;48.194;11.546;2023-01-25T06:13:50;97279.50;;;1.60;96.78
29239;BME280;16267;48.194;11.546;2023-01-25T06:16:17;97268.16;;;1.59;96.53
29239;BME280;16267;48.194;11.546;2023-01-25T06:18:43;97272.66;;;1.59;96.23
29239;BME280;16267;48.194;11.546;2023-01-25T06:21:09;97275.75;;;1.61;96.55
29239;BME280;16267;48.194;11.546;2023-01-25T06:23:35;97268.16;;;1.59;96.19
29239;BME280;16267;48.194;11.546;2023-01-25T06:26:07;97265.78;;;1.58;95.84
29239;BME280;16267;48.194;11.546;2023-01-25T06:28:36;97262.84;;;1.59;96.70
29239;BME280;16267;48.194;11.546;2023-01-25T06:31:11;97263.16;;;1.58;96.14
29239;BME280;16267;48.194;11.546;2023-01-25T06:33:39;97261.31;;;1.58;96.06
29239;BME280;16267;48.194;11.546;2023-01-25T06:36:10;97252.56;;;1.58;96.53
29239;BME280;16267;48.194;11.546;2023-01-25T06:38:36;97249.91;;;1.58;96.56
29239;BME280;16267;48.194;11.546;2023-01-25T06:41:05;97245.09;;;1.60;96.30
29239;BME280;16267;48.194;11.546;2023-01-25T06:43:33;97240.91;;;1.59;96.93
29239;BME280;16267;48.194;11.546;2023-01-25T06:46:02;97245.88;;;1.60;96.46
29239;BME280;16267;48.194;11.546;2023-01-25T06:48:29;97244.81;;;1.61;97.34
29239;BME280;16267;48.194;11.546;2023-01-25T06:51:02;97244.94;;;1.65;97.44
29239;BME280;16267;48.194;11.546;2023-01-25T06:53:31;97242.31;;;1.65;96.70
29239;BME280;16267;48.194;11.546;2023-01-25T06:56:09;97234.03;;;1.66;96.90
29239;BME280;16267;48.194;11.546;2023-01-25T06:58:35;97238.25;;;1.67;96.68
29239;BME280;16267;48.194;11.546;2023-01-25T07:01:16;97227.97;;;1.66;96.30
29239;BME280;16267;48.194;11.546;2023-01-25T07:03:54;97229.56;;;1.67;96.34
29239;BME280;16267;48.194;11.546;2023-01-25T07:06:21;97223.44;;;1.66;96.01
29239;BME280;16267;48.194;11.546;2023-01-25T07:08:47;97226.91;;;1.67;96.37
29239;BME280;16267;48.194;11.546;2023-01-25T07:11:13;97226.91;;;1.67;96.30
29239;BME280;16267;48.194;11.546;2023-01-25T07:13:42;97231.41;;;1.66;96.08
29239;BME280;16267;48.194;11.546;2023-01-25T07:16:16;97223.63;;;1.61;95.65
29239;BME280;16267;48.194;11.546;2023-01-25T07:18:43;97218.34;;;1.61;95.64
29239;BME280;16267;48.194;11.546;2023-01-25T07:21:21;97221.00;;;1.61;96.99
29239;BME280;16267;48.194;11.546;2023-01-25T07:23:51;97226.09;;;1.58;95.95
29239;BME280;16267;48.194;11.546;2023-01-25T07:26:24;97218.97;;;1.58;96.99
29239;BME280;16267;48.194;11.546;2023-01-25T07:28:51;97220.50;;;1.59;97.15
29239;BME280;16267;48.194;11.546;2023-01-25T07:31:18;97231.88;;;1.60;97.07
29239;BME280;16267;48.194;11.546;2023-01-25T07:33:49;97226.56;;;1.60;96.69
29239;BME280;16267;48.194;11.546;2023-01-25T07:36:15;97221.59;;;1.58;96.78
29239;BME280;16267;48.194;11.546;2023-01-25T07:38:41;97216.31;;;1.58;96.31
29239;BME280;16267;48.194;11.546;2023-01-25T07:41:07;97222.38;;;1.59;96.90
29239;BME280;16267;48.194;11.546;2023-01-25T07:43:33;97225.03;;;1.59;96.27
29239;BME280;16267;48.194;11.546;2023-01-25T07:46:08;97225.31;;;1.57;95.18
29239;BME280;16267;48.194;11.546;2023-01-25T07:48:39;97223.78;;;1.56;95.17
29239;BME280;16267;48.194;11.546;2023-01-25T07:51:08;97230.47;;;1.53;94.92
29239;BME280;16267;48.194;11.546;2023-01-25T07:53:42;97234.03;;;1.49;95.06
29239;BME280;16267;48.194;11.546;2023-01-25T07:56:10;97241.97;;;1.49;96.48
29239;BME280;16267;48.194;11.546;2023-01-25T07:58:36;97231.72;;;1.47;95.96
29239;BME280;16267;48.194;11.546;2023-01-25T08:01:14;97233.25;;;1.48;97.12
29239;BME280;16267;48.194;11.546;2023-01-25T08:03:41;97240.09;;;1.49;96.60
29239;BME280;16267;48.194;11.546;2023-01-25T08:06:09;97237.44;;;1.49;96.48
29239;BME280;16267;48.194;11.546;2023-01-25T08:08:43;97234.81;;;1.49;96.04
29239;BME280;16267;48.194;11.546;2023-01-25T08:11:17;97228.75;;;1.49;96.13
29239;BME280;16267;48.194;11.546;2023-01-25T08:13:43;97233.75;;;1.50;96.73
29239;BME280;16267;48.194;11.546;2023-01-25T08:16:12;97232.16;;;1.49;95.13
29239;BME280;16267;48.194;11.546;2023-01-25T08:18:38;97239.31;;;1.49;95.10
29239;BME280;16267;48.194;11.546;2023-01-25T08:21:04;97225.63;;;1.47;95.56
29239;BME280;16267;48.194;11.546;2023-01-25T08:23:30;97228.75;;;1.49;96.58
29239;BME280;16267;48.194;11.546;2023-01-25T08:26:05;97225.19;;;1.45;95.40
29239;BME280;16267;48.194;11.546;2023-01-25T08:28:31;97226.44;;;1.47;96.29
29239;BME280;16267;48.194;11.546;2023-01-25T08:31:10;97223.44;;;1.49;96.40
29239;BME280;16267;48.194;11.546;2023-01-25T08:33:37;97219.75;;;1.50;96.72
29239;BME280;16267;48.194;11.546;2023-01-25T08:36:03;97221.28;;;1.51;96.96
29239;BME280;16267;48.194;11.546;2023-01-25T08:38:31;97219.75;;;1.50;95.75
29239;BME280;16267;48.194;11.546;2023-01-25T08:41:15;97225.47;;;1.52;96.54
29239;BME280;16267;48.194;11.546;2023-01-25T08:43:43;97219.41;;;1.51;95.67
29239;BME280;16267;48.194;11.546;2023-01-25T08:46:10;97209.59;;;1.52;95.93
29239;BME280;16267;48.194;11.546;2023-01-25T08:48:36;97217.25;;;1.53;96.77
29239;BME280;16267;48.194;11.546;2023-01-25T08:51:02;97218.63;;;1.51;95.30
29239;BME280;16267;48.194;11.546;2023-01-25T08:53:30;97216.75;;;1.51;95.87
29239;BME280;16267;48.194;11.546;2023-01-25T08:56:02;97215.69;;;1.52;96.78
29239;BME280;16267;48.194;11.546;2023-01-25T08:58:28;97216.47;;;1.53;96.19
29239;BME280;16267;48.194;11.546;2023-01-25T09:01:01;97216.00;;;1.51;95.29
29239;BME280;16267;48.194;11.546;2023-01-25T09:03:27;97199.78;;;1.44;94.74
29239;BME280;16267;48.194;11.546;2023-01-25T09:05:53;97206.66;;;1.45;96.08
29239;BME280;16267;48.194;11.546;2023-01-25T09:08:19;97204.78;;;1.45;95.86
29239;BME280;16267;48.194;11.546;2023-01-25T09:10:45;97207.09;;;1.47;95.87
29239;BME280;16267;48.194;11.546;2023-01-25T09:13:10;97199.97;;;1.47;95.84
29239;BME280;16267;48.194;11.546;2023-01-25T09:15:37;97193.88;;;1.47;95.19
29239;BME280;16267;48.194;11.546;2023-01-25T09:18:03;97200.25;;;1.46;95.85
29239;BME280;16267;48.194;11.546;2023-01-25T09:20:29;97199.97;;;1.47;94.93
29239;BME280;16267;48.194;11.546;2023-01-25T09:22:55;97200.88;;;1.43;94.47
29239;BME280;16267;48.194;11.546;2023-01-25T09:25:21;97198.72;;;1.45;95.35
29239;BME280;16267;48.194;11.546;2023-01-25T09:27:50;97200.25;;;1.46;95.15
29239;BME280;16267;48.194;11.546;2023-01-25T09:30:17;97195.13;;;1.49;95.52
29239;BME280;16267;48.194;11.546;2023-01-25T09:32:43;97201.22;;;1.50;95.11
29239;BME280;16267;48.194;11.546;2023-01-25T09:35:09;97193.44;;;1.45;94.12
29239;BME280;16267;48.194;11.546;2023-01-25T09:37:35;97202.13;;;1.45;94.53
29239;BME280;16267;48.194;11.546;2023-01-25T09:40:01;97190.31;;;1.43;94.56
29239;BME280;16267;48.194;11.546;2023-01-25T09:45:32;97192.47;;;1.41;93.99
29239;BME280;16267;48.194;11.546;2023-01-25T09:53:38;97189.38;;;1.47;94.16
29239;BME280;16267;48.194;11.546;2023-01-25T09:56:24;97190.94;;;1.48;94.41
29239;BME280;16267;48.194;11.546;2023-01-25T09:58:56;97191.69;;;1.49;93.97
29239;BME280;16267;48.194;11.546;2023-01-25T10:01:43;97185.50;;;1.45;94.22
29239;BME280;16267;48.194;11.546;2023-01-25T10:04:25;97178.00;;;1.47;94.38
29239;BME280;16267;48.194;11.546;2023-01-25T10:07:10;97168.22;;;1.47;94.49
29239;BME280;16267;48.194;11.546;2023-01-25T10:09:59;97173.94;;;1.49;93.96
29239;BME280;16267;48.194;11.546;2023-01-25T10:12:35;97176.31;;;1.51;94.33
29239;BME280;16267;48.194;11.546;2023-01-25T10:15:01;97169.47;;;1.50;93.60
29239;BME280;16267;48.194;11.546;2023-01-25T10:17:36;97172.56;;;1.52;94.27
29239;BME280;16267;48.194;11.546;2023-01-25T10:29:11;97161.69;;;1.45;93.98
29239;BME280;16267;48.194;11.546;2023-01-25T10:31:48;97158.69;;;1.46;94.86
29239;BME280;16267;48.194;11.546;2023-01-25T10:34:37;97136.00;;;1.45;94.45
29239;BME280;16267;48.194;11.546;2023-01-25T10:37:19;97143.94;;;1.45;94.37
29239;BME280;16267;48.194;11.546;2023-01-25T10:41:04;97134.59;;;1.48;95.04
29239;BME280;16267;48.194;11.546;2023-01-25T10:43:10;97134.75;;;1.51;95.65
29239;BME280;16267;48.194;11.546;2023-01-25T10:45:38;97131.78;;;1.53;95.65
29239;BME280;16267;48.194;11.546;2023-01-25T10:48:22;97132.56;;;1.53;94.67
29239;BME280;16267;48.194;11.546;2023-01-25T10:50:52;97127.75;;;1.55;95.61
29239;BME280;16267;48.194;11.546;2023-01-25T10:58:47;97125.53;;;1.58;95.51
29239;BME280;16267;48.194;11.546;2023-01-25T11:03:53;97104.69;;;1.56;94.50
29239;BME280;16267;48.194;11.546;2023-01-25T11:06:36;97110.00;;;1.56;94.69
29239;BME280;16267;48.194;11.546;2023-01-25T11:12:17;97093.66;;;1.54;93.51
29239;BME280;16267;48.194;11.546;2023-01-25T11:14:44;97091.34;;;1.52;93.09
29239;BME280;16267;48.194;11.546;2023-01-25T11:17:27;97079.19;;;1.51;93.82
29239;BME280;16267;48.194;11.546;2023-01-25T11:20:19;97086.03;;;1.52;94.39
29239;BME280;16267;48.194;11.546;2023-01-25T11:22:51;97081.97;;;1.55;94.04
29239;BME280;16267;48.194;11.546;2023-01-25T11:25:38;97078.88;;;1.53;93.65
29239;BME280;16267;48.194;11.546;2023-01-25T11:28:23;97077.31;;;1.52;93.45
29239;BME280;16267;48.194;11.546;2023-01-25T11:30:51;97070.16;;;1.52;93.70
29239;BME280;16267;48.194;11.546;2023-01-25T11:33:20;97063.44;;;1.55;94.47
29239;BME280;16267;48.194;11.546;2023-01-25T11:39:09;97054.44;;;1.56;94.08
29239;BME280;16267;48.194;11.546;2023-01-25T11:47:58;97044.91;;;1.55;93.79
29239;BME280;16267;48.194;11.546;2023-01-25T11:50:48;97032.16;;;1.57;94.76
29239;BME280;16267;48.194;11.546;2023-01-25T11:59:38;97010.25;;;1.48;95.47
29239;BME280;16267;48.194;11.546;2023-01-25T12:02:42;97000.91;;;1.50;95.88
29239;BME280;16267;48.194;11.546;2023-01-25T12:26:03;96971.19;;;1.45;93.26
29239;BME280;16267;48.194;11.546;2023-01-25T12:28:18;96961.69;;;1.44;93.49
29239;BME280;16267;48.194;11.546;2023-01-25T12:31:01;96965.44;;;1.43;93.28
29239;BME280;16267;48.194;11.546;2023-01-25T12:33:56;96956.41;;;1.44;94.40
29239;BME280;16267;48.194;11.546;2023-01-25T12:36:42;96954.22;;;1.46;95.08
29239;BME280;16267;48.194;11.546;2023-01-25T12:39:28;96957.31;;;1.48;95.06
29239;BME280;16267;48.194;11.546;2023-01-25T12:45:21;96951.72;;;1.49;94.96
29239;BME280;16267;48.194;11.546;2023-01-25T12:47:54;96943.00;;;1.49;93.98
29239;BME280;16267;48.194;11.546;2023-01-25T12:50:33;96941.13;;;1.49;95.00
29239;BME280;16267;48.194;11.546;2023-01-25T12:53:43;96940.81;;;1.51;94.84
29239;BME280;16267;48.194;11.546;2023-01-25T12:59:15;96934.75;;;1.50;95.06
29239;BME280;16267;48.194;11.546;2023-01-25T13:08:02;96925.72;;;1.51;94.15
29239;BME280;16267;48.194;11.546;2023-01-25T13:10:44;96925.72;;;1.51;94.52
29239;BME280;16267;48.194;11.546;2023-01-25T13:13:26;96923.06;;;1.51;94.83
29239;BME280;16267;48.194;11.546;2023-01-25T13:15:53;96912.03;;;1.49;94.06
29239;BME280;16267;48.194;11.546;2023-01-25T13:21:00;96910.19;;;1.50;94.62
29239;BME280;16267;48.194;11.546;2023-01-25T13:23:43;96907.53;;;1.50;94.34
29239;BME280;16267;48.194;11.546;2023-01-25T13:28:55;96908.31;;;1.50;94.73
29239;BME280;16267;48.194;11.546;2023-01-25T13:34:08;96907.84;;;1.48;94.97
29239;BME280;16267;48.194;11.546;2023-01-25T13:44:41;96894.91;;;1.47;94.92
29239;BME280;16267;48.194;11.546;2023-01-25T13:47:12;96890.41;;;1.47;95.25
29239;BME280;16267;48.194;11.546;2023-01-25T13:52:38;96889.78;;;1.50;95.43
29239;BME280;16267;48.194;11.546;2023-01-25T13:55:16;96889.00;;;1.50;95.02
29239;BME280;16267;48.194;11.546;2023-01-25T13:57:42;96887.13;;;1.50;94.89
29239;BME280;16267;48.194;11.546;2023-01-25T14:00:14;96880.28;;;1.49;94.61
29239;BME280;16267;48.194;11.546;2023-01-25T14:02:43;96872.03;;;1.51;95.15
29239;BME280;16267;48.194;11.546;2023-01-25T14:05:23;96879.97;;;1.51;94.95
29239;BME280;16267;48.194;11.546;2023-01-25T14:07:52;96873.91;;;1.50;94.79
29239;BME280;16267;48.194;11.546;2023-01-25T14:10:24;96878.09;;;1.51;95.10
29239;BME280;16267;48.194;11.546;2023-01-25T14:12:56;96887.13;;;1.50;94.80
29239;BME280;16267;48.194;11.546;2023-01-25T14:15:29;96879.50;;;1.49;95.07
29239;BME280;16267;48.194;11.546;2023-01-25T14:20:41;96878.25;;;1.46;94.06
29239;BME280;16267;48.194;11.546;2023-01-25T14:23:26;96873.16;;;1.41;93.79
29239;BME280;16267;48.194;11.546;2023-01-25T14:25:53;96872.84;;;1.43;95.39
29239;BME280;16267;48.194;11.546;2023-01-25T14:28:20;96877.81;;;1.44;95.75
29239;BME280;16267;48.194;11.546;2023-01-25T14:30:55;96870.97;;;1.43;94.89
29239;BME280;16267;48.194;11.546;2023-01-25T14:33:30;96861.50;;;1.42;95.12
29239;BME280;16267;48.194;11.546;2023-01-25T14:36:10;96861.16;;;1.44;94.80
29239;BME280;16267;48.194;11.546;2023-01-25T14:38:41;96853.22;;;1.44;94.88
29239;BME280;16267;48.194;11.546;2023-01-25T14:41:16;96850.28;;;1.45;95.29
29239;BME280;16267;48.194;11.546;2023-01-25T14:43:49;96852.56;;;1.47;94.85
29239;BME280;16267;48.194;11.546;2023-01-25T14:46:33;96850.72;;;1.47;94.78
29239;BME280;16267;48.194;11.546;2023-01-25T14:51:48;96853.38;;;1.47;94.69
29239;BME280;16267;48.194;11.546;2023-01-25T14:54:34;96847.63;;;1.45;93.95
29239;BME280;16267;48.194;11.546;2023-01-25T14:57:16;96842.34;;;1.45;94.63
29239;BME280;16267;48.194;11.546;2023-01-25T14:59:51;96848.09;;;1.47;94.89
29239;BME280;16267;48.194;11.546;2023-01-25T15:02:39;96847.28;;;1.47;94.55
29239;BME280;16267;48.194;11.546;2023-01-25T15:05:29;96846.22;;;1.48;94.77
29239;BME280;16267;48.194;11.546;2023-01-25T15:10:32;96852.91;;;1.45;93.61
29239;BME280;16267;48.194;11.546;2023-01-25T15:16:01;96840.19;;;1.39;93.17
29239;BME280;16267;48.194;11.546;2023-01-25T15:21:30;96824.00;;;1.40;94.90
29239;BME280;16267;48.194;11.546;2023-01-25T15:24:04;96816.81;;;1.41;95.03
29239;BME280;16267;48.194;11.546;2023-01-25T15:26:35;96816.81;;;1.41;94.83
29239;BME280;16267;48.194;11.546;2023-01-25T15:29:22;96818.41;;;1.33;94.02
29239;BME280;16267;48.194;11.546;2023-01-25T15:31:50;96820.00;;;1.34;96.18
29239;BME280;16267;48.194;11.546;2023-01-25T15:34:20;96824.94;;;1.36;96.49
29239;BME280;16267;48.194;11.546;2023-01-25T15:36:48;96821.69;;;1.39;96.69